sensor_id;sensor_type;location;lat;lon;timestamp;P1;durP1;ratioP1;P2;durP2;ratioP2
18879;SDS011;9572;52.378;13.404;2023-04-06T00:00:44;5.17;;;4.00;;
18879;SDS011;9572;52.378;13.404;2023-04-06T00:03:11;6.47;;;4.20;;
18879;SDS011;9572;52.378;13.404;2023-04-06T00:05:38;5.73;;;4.07;;
18879;SDS011;9572;52.378;13.404;2023-04-06T00:08:05;6.40;;;4.40;;
18879;SDS011;9572;52.378;13.404;2023-04-06T00:10:34;7.87;;;4.83;;
18879;SDS011;9572;52.378;13.404;2023-04-06T00:13:01;7.50;;;4.20;;
18879;SDS011;9572;52.378;13.404;2023-04-06T00:15:28;5.53;;;3.90;;
18879;SDS011;9572;52.378;13.404;2023-04-06T00:17:55;7.93;;;5.07;;
18879;SDS011;9572;52.378;13.404;2023-04-06T00:20:22;6.40;;;4.40;;
18879;SDS011;9572;52.378;13.404;2023-04-06T00:22:49;5.80;;;4.13;;
18879;SDS011;9572;52.378;13.404;2023-04-06T00:25:17;5.50;;;3.97;;
18879;SDS011;9572;52.378;13.404;2023-04-06T00:27:45;6.27;;;4.43;;
18879;SDS011;9572;52.378;13.404;2023-04-06T00:30:12;6.50;;;4.10;;
18879;SDS011;9572;52.378;13.404;2023-04-06T00:32:39;6.03;;;4.40;;
18879;SDS011;9572;52.378;13.404;2023-04-06T00:35:06;6.73;;;3.97;;
18879;SDS011;9572;52.378;13.404;2023-04-06T00:37:33;6.67;;;4.13;;
18879;SDS011;9572;52.378;13.404;2023-04-06T00:40:00;5.63;;;3.80;;
18879;SDS011;9572;52.378;13.404;2023-04-06T00:42:28;5.77;;;3.87;;
18879;SDS011;9572;52.378;13.404;2023-04-06T00:44:57;8.03;;;4.43;;
18879;SDS011;9572;52.378;13.404;2023-04-06T00:47:25;5.23;;;4.03;;
18879;SDS011;9572;52.378;13.404;2023-04-06T00:49:53;5.77;;;4.10;;
18879;SDS011;9572;52.378;13.404;2023-04-06T00:52:20;7.47;;;3.90;;
18879;SDS011;9572;52.378;13.404;2023-04-06T00:54:48;7.77;;;4.40;;
18879;SDS011;9572;52.378;13.404;2023-04-06T00:57:15;6.80;;;4.60;;
18879;SDS011;9572;52.378;13.404;2023-04-06T00:59:42;5.53;;;4.07;;
18879;SDS011;9572;52.378;13.404;2023-04-06T01:02:11;7.93;;;4.63;;
18879;SDS011;9572;52.378;13.404;2023-04-06T01:04:38;5.90;;;4.03;;
18879;SDS011;9572;52.378;13.404;2023-04-06T01:07:05;7.60;;;4.20;;
18879;SDS011;9572;52.378;13.404;2023-04-06T01:09:32;7.37;;;4.07;;
18879;SDS011;9572;52.378;13.404;2023-04-06T01:12:00;7.83;;;4.53;;
18879;SDS011;9572;52.378;13.404;2023-04-06T01:14:27;6.33;;;4.40;;
18879;SDS011;9572;52.378;13.404;2023-04-06T01:16:57;7.80;;;4.07;;
18879;SDS011;9572;52.378;13.404;2023-04-06T01:19:26;7.47;;;4.70;;
18879;SDS011;9572;52.378;13.404;2023-04-06T01:21:53;6.47;;;4.30;;
18879;SDS011;9572;52.378;13.404;2023-04-06T01:24:22;7.40;;;4.60;;
18879;SDS011;9572;52.378;13.404;2023-04-06T01:26:49;7.70;;;4.77;;
18879;SDS011;9572;52.378;13.404;2023-04-06T01:29:16;7.47;;;4.63;;
18879;SDS011;9572;52.378;13.404;2023-04-06T01:31:43;6.73;;;4.70;;
18879;SDS011;9572;52.378;13.404;2023-04-06T01:34:10;8.87;;;4.60;;
18879;SDS011;9572;52.378;13.404;2023-04-06T01:36:37;7.23;;;4.70;;
18879;SDS011;9572;52.378;13.404;2023-04-06T01:39:04;8.80;;;4.63;;
18879;SDS011;9572;52.378;13.404;2023-04-06T01:41:33;6.30;;;4.50;;
18879;SDS011;9572;52.378;13.404;2023-04-06T01:43:59;7.37;;;4.47;;
18879;SDS011;9572;52.378;13.404;2023-04-06T01:46:27;5.97;;;4.67;;
18879;SDS011;9572;52.378;13.404;2023-04-06T01:48:54;6.60;;;4.20;;
18879;SDS011;9572;52.378;13.404;2023-04-06T01:51:21;5.60;;;4.23;;
18879;SDS011;9572;52.378;13.404;2023-04-06T01:53:49;6.67;;;4.17;;
18879;SDS011;9572;52.378;13.404;2023-04-06T01:56:16;8.80;;;4.90;;
18879;SDS011;9572;52.378;13.404;2023-04-06T01:58:45;7.07;;;4.67;;
18879;SDS011;9572;52.378;13.404;2023-04-06T02:01:12;7.63;;;4.87;;
18879;SDS011;9572;52.378;13.404;2023-04-06T02:03:39;7.33;;;5.00;;
18879;SDS011;9572;52.378;13.404;2023-04-06T02:06:06;7.97;;;4.70;;
18879;SDS011;9572;52.378;13.404;2023-04-06T02:08:33;8.20;;;5.00;;
18879;SDS011;9572;52.378;13.404;2023-04-06T02:11:00;7.77;;;4.93;;
18879;SDS011;9572;52.378;13.404;2023-04-06T02:13:27;7.67;;;5.27;;
18879;SDS011;9572;52.378;13.404;2023-04-06T02:15:55;7.80;;;5.03;;
18879;SDS011;9572;52.378;13.404;2023-04-06T02:18:23;9.30;;;6.17;;
18879;SDS011;9572;52.378;13.404;2023-04-06T02:20:50;9.90;;;6.00;;
18879;SDS011;9572;52.378;13.404;2023-04-06T02:23:17;12.67;;;6.37;;
18879;SDS011;9572;52.378;13.404;2023-04-06T02:25:44;9.47;;;6.03;;
18879;SDS011;9572;52.378;13.404;2023-04-06T02:28:11;7.73;;;5.70;;
18879;SDS011;9572;52.378;13.404;2023-04-06T02:30:38;9.90;;;5.80;;
18879;SDS011;9572;52.378;13.404;2023-04-06T02:33:07;9.53;;;5.83;;
18879;SDS011;9572;52.378;13.404;2023-04-06T02:35:34;8.27;;;6.07;;
18879;SDS011;9572;52.378;13.404;2023-04-06T02:38:01;11.57;;;6.40;;
18879;SDS011;9572;52.378;13.404;2023-04-06T02:40:28;11.40;;;6.40;;
18879;SDS011;9572;52.378;13.404;2023-04-06T02:42:55;12.80;;;5.70;;
18879;SDS011;9572;52.378;13.404;2023-04-06T02:45:22;8.17;;;6.30;;
18879;SDS011;9572;52.378;13.404;2023-04-06T02:47:49;9.53;;;5.83;;
18879;SDS011;9572;52.378;13.404;2023-04-06T02:50:17;10.27;;;5.60;;
18879;SDS011;9572;52.378;13.404;2023-04-06T02:52:45;9.17;;;6.17;;
18879;SDS011;9572;52.378;13.404;2023-04-06T02:55:12;11.13;;;6.33;;
18879;SDS011;9572;52.378;13.404;2023-04-06T02:57:39;8.47;;;5.70;;
18879;SDS011;9572;52.378;13.404;2023-04-06T03:00:07;7.97;;;5.80;;
18879;SDS011;9572;52.378;13.404;2023-04-06T03:02:34;8.27;;;6.00;;
18879;SDS011;9572;52.378;13.404;2023-04-06T03:05:01;9.70;;;5.87;;
18879;SDS011;9572;52.378;13.404;2023-04-06T03:07:30;9.13;;;6.07;;
18879;SDS011;9572;52.378;13.404;2023-04-06T03:09:57;9.87;;;5.90;;
18879;SDS011;9572;52.378;13.404;2023-04-06T03:12:25;14.47;;;7.17;;
18879;SDS011;9572;52.378;13.404;2023-04-06T03:14:52;14.43;;;9.30;;
18879;SDS011;9572;52.378;13.404;2023-04-06T03:17:19;13.40;;;9.40;;
18879;SDS011;9572;52.378;13.404;2023-04-06T03:19:46;13.83;;;8.73;;
18879;SDS011;9572;52.378;13.404;2023-04-06T03:22:13;13.17;;;8.80;;
18879;SDS011;9572;52.378;13.404;2023-04-06T03:24:41;13.57;;;8.30;;
18879;SDS011;9572;52.378;13.404;2023-04-06T03:27:08;10.03;;;7.40;;
18879;SDS011;9572;52.378;13.404;2023-04-06T03:29:35;10.03;;;7.40;;
18879;SDS011;9572;52.378;13.404;2023-04-06T03:32:03;10.03;;;6.90;;
18879;SDS011;9572;52.378;13.404;2023-04-06T03:34:30;10.37;;;7.00;;
18879;SDS011;9572;52.378;13.404;2023-04-06T03:36:57;9.70;;;6.43;;
18879;SDS011;9572;52.378;13.404;2023-04-06T03:39:24;11.50;;;6.17;;
18879;SDS011;9572;52.378;13.404;2023-04-06T03:41:53;11.17;;;7.77;;
18879;SDS011;9572;52.378;13.404;2023-04-06T03:44:20;9.77;;;6.67;;
18879;SDS011;9572;52.378;13.404;2023-04-06T03:46:47;9.30;;;6.90;;
18879;SDS011;9572;52.378;13.404;2023-04-06T03:49:14;10.47;;;7.00;;
18879;SDS011;9572;52.378;13.404;2023-04-06T03:51:41;11.67;;;7.87;;
18879;SDS011;9572;52.378;13.404;2023-04-06T03:54:08;13.83;;;7.97;;
18879;SDS011;9572;52.378;13.404;2023-04-06T03:56:35;11.87;;;7.47;;
18879;SDS011;9572;52.378;13.404;2023-04-06T03:59:03;11.50;;;7.20;;
18879;SDS011;9572;52.378;13.404;2023-04-06T04:01:30;8.47;;;6.73;;
18879;SDS011;9572;52.378;13.404;2023-04-06T04:03:57;8.90;;;6.67;;
18879;SDS011;9572;52.378;13.404;2023-04-06T04:06:25;10.33;;;7.37;;
18879;SDS011;9572;52.378;13.404;2023-04-06T04:08:52;12.23;;;7.23;;
18879;SDS011;9572;52.378;13.404;2023-04-06T04:11:19;14.37;;;8.57;;
18879;SDS011;9572;52.378;13.404;2023-04-06T04:13:46;12.13;;;8.13;;
18879;SDS011;9572;52.378;13.404;2023-04-06T04:16:15;11.03;;;7.80;;
18879;SDS011;9572;52.378;13.404;2023-04-06T04:18:42;11.17;;;7.60;;
18879;SDS011;9572;52.378;13.404;2023-04-06T04:21:10;10.80;;;7.77;;
18879;SDS011;9572;52.378;13.404;2023-04-06T04:23:37;9.50;;;7.37;;
18879;SDS011;9572;52.378;13.404;2023-04-06T04:26:04;10.83;;;8.00;;
18879;SDS011;9572;52.378;13.404;2023-04-06T04:28:31;9.90;;;7.20;;
18879;SDS011;9572;52.378;13.404;2023-04-06T04:30:58;14.73;;;8.67;;
18879;SDS011;9572;52.378;13.404;2023-04-06T04:33:27;12.30;;;8.10;;
18879;SDS011;9572;52.378;13.404;2023-04-06T04:35:54;12.20;;;7.50;;
18879;SDS011;9572;52.378;13.404;2023-04-06T04:38:21;11.70;;;7.77;;
18879;SDS011;9572;52.378;13.404;2023-04-06T04:40:48;11.43;;;7.83;;
18879;SDS011;9572;52.378;13.404;2023-04-06T04:43:15;12.53;;;8.43;;
18879;SDS011;9572;52.378;13.404;2023-04-06T04:45:42;12.20;;;7.30;;
18879;SDS011;9572;52.378;13.404;2023-04-06T04:48:09;13.17;;;7.67;;
18879;SDS011;9572;52.378;13.404;2023-04-06T04:50:38;9.27;;;7.23;;
18879;SDS011;9572;52.378;13.404;2023-04-06T04:53:05;12.10;;;8.13;;
18879;SDS011;9572;52.378;13.404;2023-04-06T04:55:32;12.87;;;8.97;;
18879;SDS011;9572;52.378;13.404;2023-04-06T04:57:59;13.00;;;8.80;;
18879;SDS011;9572;52.378;13.404;2023-04-06T05:00:27;16.33;;;8.87;;
18879;SDS011;9572;52.378;13.404;2023-04-06T05:02:54;15.30;;;9.20;;
18879;SDS011;9572;52.378;13.404;2023-04-06T05:05:21;12.03;;;8.47;;
18879;SDS011;9572;52.378;13.404;2023-04-06T05:07:50;13.13;;;8.30;;
18879;SDS011;9572;52.378;13.404;2023-04-06T05:10:17;13.53;;;7.93;;
18879;SDS011;9572;52.378;13.404;2023-04-06T05:12:44;13.67;;;8.17;;
18879;SDS011;9572;52.378;13.404;2023-04-06T05:15:11;13.73;;;8.50;;
18879;SDS011;9572;52.378;13.404;2023-04-06T05:17:39;14.07;;;8.60;;
18879;SDS011;9572;52.378;13.404;2023-04-06T05:20:06;11.17;;;7.43;;
18879;SDS011;9572;52.378;13.404;2023-04-06T05:22:34;11.87;;;8.30;;
18879;SDS011;9572;52.378;13.404;2023-04-06T05:25:02;11.83;;;8.37;;
18879;SDS011;9572;52.378;13.404;2023-04-06T05:27:30;11.50;;;8.20;;
18879;SDS011;9572;52.378;13.404;2023-04-06T05:29:57;12.87;;;8.13;;
18879;SDS011;9572;52.378;13.404;2023-04-06T05:32:24;15.13;;;9.07;;
18879;SDS011;9572;52.378;13.404;2023-04-06T05:34:51;12.07;;;8.73;;
18879;SDS011;9572;52.378;13.404;2023-04-06T05:37:18;12.13;;;8.07;;
18879;SDS011;9572;52.378;13.404;2023-04-06T05:39:46;10.80;;;7.63;;
18879;SDS011;9572;52.378;13.404;2023-04-06T05:42:14;11.37;;;8.33;;
18879;SDS011;9572;52.378;13.404;2023-04-06T05:44:41;11.70;;;7.47;;
18879;SDS011;9572;52.378;13.404;2023-04-06T05:47:08;10.43;;;7.37;;
18879;SDS011;9572;52.378;13.404;2023-04-06T05:49:35;13.20;;;7.10;;
18879;SDS011;9572;52.378;13.404;2023-04-06T05:52:02;12.33;;;6.90;;
18879;SDS011;9572;52.378;13.404;2023-04-06T05:54:30;11.07;;;6.73;;
18879;SDS011;9572;52.378;13.404;2023-04-06T05:56:57;10.60;;;7.10;;
18879;SDS011;9572;52.378;13.404;2023-04-06T05:59:25;11.63;;;7.03;;
18879;SDS011;9572;52.378;13.404;2023-04-06T06:01:52;11.47;;;6.67;;
18879;SDS011;9572;52.378;13.404;2023-04-06T06:04:19;8.37;;;6.13;;
18879;SDS011;9572;52.378;13.404;2023-04-06T06:06:46;10.97;;;6.40;;
18879;SDS011;9572;52.378;13.404;2023-04-06T06:09:13;8.63;;;5.87;;
18879;SDS011;9572;52.378;13.404;2023-04-06T06:11:40;10.57;;;6.37;;
18879;SDS011;9572;52.378;13.404;2023-04-06T06:14:07;9.53;;;6.30;;
18879;SDS011;9572;52.378;13.404;2023-04-06T06:16:35;11.83;;;5.97;;
18879;SDS011;9572;52.378;13.404;2023-04-06T06:19:03;9.77;;;6.10;;
18879;SDS011;9572;52.378;13.404;2023-04-06T06:21:30;9.50;;;6.30;;
18879;SDS011;9572;52.378;13.404;2023-04-06T06:23:57;11.73;;;6.43;;
18879;SDS011;9572;52.378;13.404;2023-04-06T06:26:24;9.73;;;5.87;;
18879;SDS011;9572;52.378;13.404;2023-04-06T06:28:51;9.17;;;5.93;;
18879;SDS011;9572;52.378;13.404;2023-04-06T06:31:18;11.83;;;6.50;;
18879;SDS011;9572;52.378;13.404;2023-04-06T06:33:49;12.20;;;5.93;;
18879;SDS011;9572;52.378;13.404;2023-04-06T06:36:16;15.33;;;5.80;;
18879;SDS011;9572;52.378;13.404;2023-04-06T06:38:43;10.07;;;5.63;;
18879;SDS011;9572;52.378;13.404;2023-04-06T06:41:10;8.43;;;5.07;;
18879;SDS011;9572;52.378;13.404;2023-04-06T06:43:38;9.17;;;4.80;;
18879;SDS011;9572;52.378;13.404;2023-04-06T06:46:05;9.90;;;4.93;;
18879;SDS011;9572;52.378;13.404;2023-04-06T06:48:32;9.33;;;5.00;;
18879;SDS011;9572;52.378;13.404;2023-04-06T06:51:00;7.33;;;4.90;;
18879;SDS011;9572;52.378;13.404;2023-04-06T06:53:27;7.80;;;4.60;;
18879;SDS011;9572;52.378;13.404;2023-04-06T06:55:55;8.07;;;4.63;;
18879;SDS011;9572;52.378;13.404;2023-04-06T06:58:22;4.47;;;4.07;;
18879;SDS011;9572;52.378;13.404;2023-04-06T07:00:49;9.00;;;5.37;;
18879;SDS011;9572;52.378;13.404;2023-04-06T07:03:16;10.30;;;5.23;;
18879;SDS011;9572;52.378;13.404;2023-04-06T07:05:45;7.37;;;4.70;;
18879;SDS011;9572;52.378;13.404;2023-04-06T07:08:19;8.83;;;4.90;;
18879;SDS011;9572;52.378;13.404;2023-04-06T07:10:46;8.53;;;4.80;;
18879;SDS011;9572;52.378;13.404;2023-04-06T07:13:13;8.00;;;4.93;;
18879;SDS011;9572;52.378;13.404;2023-04-06T07:15:44;11.90;;;4.73;;
18879;SDS011;9572;52.378;13.404;2023-04-06T07:18:11;6.90;;;4.43;;
18879;SDS011;9572;52.378;13.404;2023-04-06T07:20:38;10.20;;;5.27;;
18879;SDS011;9572;52.378;13.404;2023-04-06T07:23:05;6.30;;;4.67;;
18879;SDS011;9572;52.378;13.404;2023-04-06T07:25:34;8.77;;;4.87;;
18879;SDS011;9572;52.378;13.404;2023-04-06T07:28:01;7.23;;;4.23;;
18879;SDS011;9572;52.378;13.404;2023-04-06T07:30:29;7.73;;;4.73;;
18879;SDS011;9572;52.378;13.404;2023-04-06T07:32:56;9.03;;;4.40;;
18879;SDS011;9572;52.378;13.404;2023-04-06T07:35:24;7.30;;;4.50;;
18879;SDS011;9572;52.378;13.404;2023-04-06T07:37:52;8.93;;;4.50;;
18879;SDS011;9572;52.378;13.404;2023-04-06T07:40:19;7.43;;;4.20;;
18879;SDS011;9572;52.378;13.404;2023-04-06T07:42:48;5.57;;;3.67;;
18879;SDS011;9572;52.378;13.404;2023-04-06T07:45:15;5.47;;;4.00;;
18879;SDS011;9572;52.378;13.404;2023-04-06T07:47:42;7.30;;;3.97;;
18879;SDS011;9572;52.378;13.404;2023-04-06T07:50:09;7.87;;;4.07;;
18879;SDS011;9572;52.378;13.404;2023-04-06T07:52:37;6.63;;;4.30;;
18879;SDS011;9572;52.378;13.404;2023-04-06T07:55:05;7.43;;;4.23;;
18879;SDS011;9572;52.378;13.404;2023-04-06T07:57:32;7.80;;;4.63;;
18879;SDS011;9572;52.378;13.404;2023-04-06T08:00:00;9.07;;;4.33;;
18879;SDS011;9572;52.378;13.404;2023-04-06T08:02:28;6.90;;;4.60;;
18879;SDS011;9572;52.378;13.404;2023-04-06T08:04:55;9.17;;;4.90;;
18879;SDS011;9572;52.378;13.404;2023-04-06T08:07:22;5.13;;;3.70;;
18879;SDS011;9572;52.378;13.404;2023-04-06T08:09:50;9.20;;;3.90;;
18879;SDS011;9572;52.378;13.404;2023-04-06T08:12:17;6.87;;;3.60;;
18879;SDS011;9572;52.378;13.404;2023-04-06T08:14:44;5.27;;;3.23;;
18879;SDS011;9572;52.378;13.404;2023-04-06T08:17:13;6.90;;;3.63;;
18879;SDS011;9572;52.378;13.404;2023-04-06T08:19:42;3.73;;;2.90;;
18879;SDS011;9572;52.378;13.404;2023-04-06T08:22:09;4.47;;;2.80;;
18879;SDS011;9572;52.378;13.404;2023-04-06T08:24:36;4.50;;;2.93;;
18879;SDS011;9572;52.378;13.404;2023-04-06T08:27:03;5.93;;;3.03;;
18879;SDS011;9572;52.378;13.404;2023-04-06T08:29:30;7.10;;;3.10;;
18879;SDS011;9572;52.378;13.404;2023-04-06T08:31:57;3.43;;;2.57;;
18879;SDS011;9572;52.378;13.404;2023-04-06T08:34:25;6.23;;;2.93;;
18879;SDS011;9572;52.378;13.404;2023-04-06T08:36:52;3.90;;;2.43;;
18879;SDS011;9572;52.378;13.404;2023-04-06T08:39:20;4.00;;;2.57;;
18879;SDS011;9572;52.378;13.404;2023-04-06T08:41:50;6.43;;;2.23;;
18879;SDS011;9572;52.378;13.404;2023-04-06T08:44:21;3.60;;;2.43;;
18879;SDS011;9572;52.378;13.404;2023-04-06T08:46:49;4.97;;;2.60;;
18879;SDS011;9572;52.378;13.404;2023-04-06T08:49:17;5.33;;;2.70;;
18879;SDS011;9572;52.378;13.404;2023-04-06T08:51:46;2.47;;;2.00;;
18879;SDS011;9572;52.378;13.404;2023-04-06T08:54:14;5.37;;;2.70;;
18879;SDS011;9572;52.378;13.404;2023-04-06T08:56:41;6.53;;;2.53;;
18879;SDS011;9572;52.378;13.404;2023-04-06T08:59:09;11.97;;;5.77;;
18879;SDS011;9572;52.378;13.404;2023-04-06T09:01:38;1.87;;;1.60;;
18879;SDS011;9572;52.378;13.404;2023-04-06T09:04:07;2.23;;;1.90;;
18879;SDS011;9572;52.378;13.404;2023-04-06T09:06:37;3.57;;;1.83;;
18879;SDS011;9572;52.378;13.404;2023-04-06T09:12:29;6.03;;;2.10;;
18879;SDS011;9572;52.378;13.404;2023-04-06T09:15:02;4.37;;;1.97;;
18879;SDS011;9572;52.378;13.404;2023-04-06T09:17:30;3.73;;;1.97;;
18879;SDS011;9572;52.378;13.404;2023-04-06T09:20:12;3.10;;;2.07;;
18879;SDS011;9572;52.378;13.404;2023-04-06T09:22:51;3.00;;;1.70;;
18879;SDS011;9572;52.378;13.404;2023-04-06T09:25:22;3.80;;;2.00;;
18879;SDS011;9572;52.378;13.404;2023-04-06T09:28:01;2.83;;;1.87;;
18879;SDS011;9572;52.378;13.404;2023-04-06T09:30:47;4.10;;;1.73;;
18879;SDS011;9572;52.378;13.404;2023-04-06T09:33:21;2.20;;;1.90;;
18879;SDS011;9572;52.378;13.404;2023-04-06T09:35:49;3.47;;;1.40;;
18879;SDS011;9572;52.378;13.404;2023-04-06T09:38:16;4.27;;;1.53;;
18879;SDS011;9572;52.378;13.404;2023-04-06T09:40:49;2.90;;;1.40;;
18879;SDS011;9572;52.378;13.404;2023-04-06T09:43:27;2.27;;;1.53;;
18879;SDS011;9572;52.378;13.404;2023-04-06T09:46:20;2.67;;;1.90;;
18879;SDS011;9572;52.378;13.404;2023-04-06T09:48:49;1.90;;;1.67;;
18879;SDS011;9572;52.378;13.404;2023-04-06T09:51:17;5.43;;;1.50;;
18879;SDS011;9572;52.378;13.404;2023-04-06T09:53:45;3.27;;;1.80;;
18879;SDS011;9572;52.378;13.404;2023-04-06T09:56:19;3.83;;;2.10;;
18879;SDS011;9572;52.378;13.404;2023-04-06T10:02:05;4.70;;;2.00;;
18879;SDS011;9572;52.378;13.404;2023-04-06T10:05:08;1.50;;;1.27;;
18879;SDS011;9572;52.378;13.404;2023-04-06T10:08:25;3.17;;;1.65;;
18879;SDS011;9572;52.378;13.404;2023-04-06T10:17:36;4.07;;;1.83;;
18879;SDS011;9572;52.378;13.404;2023-04-06T10:20:10;4.70;;;1.88;;
18879;SDS011;9572;52.378;13.404;2023-04-06T10:23:00;1.95;;;1.70;;
18879;SDS011;9572;52.378;13.404;2023-04-06T10:25:37;3.35;;;1.90;;
18879;SDS011;9572;52.378;13.404;2023-04-06T10:28:09;2.97;;;1.55;;
18879;SDS011;9572;52.378;13.404;2023-04-06T10:30:44;2.55;;;1.90;;
18879;SDS011;9572;52.378;13.404;2023-04-06T10:33:19;2.92;;;1.90;;
18879;SDS011;9572;52.378;13.404;2023-04-06T10:35:52;3.08;;;1.70;;
18879;SDS011;9572;52.378;13.404;2023-04-06T10:41:35;4.00;;;1.73;;
18879;SDS011;9572;52.378;13.404;2023-04-06T10:44:18;2.42;;;1.50;;
18879;SDS011;9572;52.378;13.404;2023-04-06T10:46:56;2.33;;;1.60;;
18879;SDS011;9572;52.378;13.404;2023-04-06T10:49:25;3.63;;;1.92;;
18879;SDS011;9572;52.378;13.404;2023-04-06T10:51:53;3.53;;;1.80;;
18879;SDS011;9572;52.378;13.404;2023-04-06T10:54:22;5.85;;;1.55;;
18879;SDS011;9572;52.378;13.404;2023-04-06T10:56:52;5.63;;;1.80;;
18879;SDS011;9572;52.378;13.404;2023-04-06T10:59:23;3.67;;;1.73;;
18879;SDS011;9572;52.378;13.404;2023-04-06T11:01:53;4.15;;;1.88;;
18879;SDS011;9572;52.378;13.404;2023-04-06T11:04:28;3.17;;;1.92;;
18879;SDS011;9572;52.378;13.404;2023-04-06T11:06:56;4.32;;;1.60;;
18879;SDS011;9572;52.378;13.404;2023-04-06T11:09:24;5.78;;;1.77;;
18879;SDS011;9572;52.378;13.404;2023-04-06T11:11:53;1.77;;;1.63;;
18879;SDS011;9572;52.378;13.404;2023-04-06T11:14:23;7.85;;;1.88;;
18879;SDS011;9572;52.378;13.404;2023-04-06T11:16:53;3.15;;;1.85;;
18879;SDS011;9572;52.378;13.404;2023-04-06T11:19:28;2.90;;;2.00;;
18879;SDS011;9572;52.378;13.404;2023-04-06T11:21:55;3.47;;;1.70;;
18879;SDS011;9572;52.378;13.404;2023-04-06T11:24:33;3.63;;;2.40;;
18879;SDS011;9572;52.378;13.404;2023-04-06T11:27:03;3.35;;;2.15;;
18879;SDS011;9572;52.378;13.404;2023-04-06T11:29:33;2.42;;;1.73;;
18879;SDS011;9572;52.378;13.404;2023-04-06T11:32:05;2.95;;;1.67;;
18879;SDS011;9572;52.378;13.404;2023-04-06T11:34:38;2.03;;;1.77;;
18879;SDS011;9572;52.378;13.404;2023-04-06T11:37:07;2.88;;;2.30;;
18879;SDS011;9572;52.378;13.404;2023-04-06T11:39:37;4.85;;;1.98;;
18879;SDS011;9572;52.378;13.404;2023-04-06T11:42:05;5.47;;;2.33;;
18879;SDS011;9572;52.378;13.404;2023-04-06T11:44:33;3.13;;;1.73;;
18879;SDS011;9572;52.378;13.404;2023-04-06T11:47:05;4.53;;;2.22;;
18879;SDS011;9572;52.378;13.404;2023-04-06T11:49:39;2.40;;;1.83;;
18879;SDS011;9572;52.378;13.404;2023-04-06T11:52:14;3.25;;;1.90;;
18879;SDS011;9572;52.378;13.404;2023-04-06T11:54:43;3.47;;;2.20;;
18879;SDS011;9572;52.378;13.404;2023-04-06T11:57:13;4.13;;;2.25;;
18879;SDS011;9572;52.378;13.404;2023-04-06T11:59:43;2.97;;;2.25;;
18879;SDS011;9572;52.378;13.404;2023-04-06T12:02:13;3.30;;;2.13;;
18879;SDS011;9572;52.378;13.404;2023-04-06T12:04:47;3.55;;;2.15;;
18879;SDS011;9572;52.378;13.404;2023-04-06T12:07:14;5.35;;;2.05;;
18879;SDS011;9572;52.378;13.404;2023-04-06T12:09:43;2.53;;;1.92;;
18879;SDS011;9572;52.378;13.404;2023-04-06T12:12:13;3.63;;;2.05;;
18879;SDS011;9572;52.378;13.404;2023-04-06T12:14:43;4.63;;;2.25;;
18879;SDS011;9572;52.378;13.404;2023-04-06T12:17:13;4.60;;;2.55;;
18879;SDS011;9572;52.378;13.404;2023-04-06T12:19:40;2.70;;;2.28;;
18879;SDS011;9572;52.378;13.404;2023-04-06T12:22:08;3.08;;;2.25;;
18879;SDS011;9572;52.378;13.404;2023-04-06T12:24:35;2.78;;;2.47;;
18879;SDS011;9572;52.378;13.404;2023-04-06T12:27:03;3.05;;;2.47;;
18879;SDS011;9572;52.378;13.404;2023-04-06T12:29:33;2.97;;;2.63;;
18879;SDS011;9572;52.378;13.404;2023-04-06T12:32:03;4.10;;;2.72;;
18879;SDS011;9572;52.378;13.404;2023-04-06T12:34:33;4.60;;;2.33;;
18879;SDS011;9572;52.378;13.404;2023-04-06T12:37:03;4.50;;;2.53;;
18879;SDS011;9572;52.378;13.404;2023-04-06T12:39:38;4.07;;;2.50;;
18879;SDS011;9572;52.378;13.404;2023-04-06T12:42:05;5.22;;;3.88;;
18879;SDS011;9572;52.378;13.404;2023-04-06T12:44:34;3.95;;;2.40;;
18879;SDS011;9572;52.378;13.404;2023-04-06T12:47:03;3.03;;;2.70;;
18879;SDS011;9572;52.378;13.404;2023-04-06T12:49:33;3.88;;;2.65;;
18879;SDS011;9572;52.378;13.404;2023-04-06T12:52:00;3.55;;;2.58;;
18879;SDS011;9572;52.378;13.404;2023-04-06T12:54:28;4.13;;;2.88;;
18879;SDS011;9572;52.378;13.404;2023-04-06T12:56:57;3.42;;;2.72;;
18879;SDS011;9572;52.378;13.404;2023-04-06T12:59:25;4.55;;;2.47;;
18879;SDS011;9572;52.378;13.404;2023-04-06T13:01:59;3.40;;;2.60;;
18879;SDS011;9572;52.378;13.404;2023-04-06T13:04:26;2.83;;;2.30;;
18879;SDS011;9572;52.378;13.404;2023-04-06T13:06:53;2.20;;;2.00;;
18879;SDS011;9572;52.378;13.404;2023-04-06T13:09:20;3.33;;;2.50;;
18879;SDS011;9572;52.378;13.404;2023-04-06T13:11:47;4.00;;;2.50;;
18879;SDS011;9572;52.378;13.404;2023-04-06T13:14:16;3.25;;;2.40;;
18879;SDS011;9572;52.378;13.404;2023-04-06T13:16:43;4.38;;;2.35;;
18879;SDS011;9572;52.378;13.404;2023-04-06T13:19:10;5.07;;;2.47;;
18879;SDS011;9572;52.378;13.404;2023-04-06T13:21:36;4.03;;;2.47;;
18879;SDS011;9572;52.378;13.404;2023-04-06T13:24:05;4.35;;;2.50;;
18879;SDS011;9572;52.378;13.404;2023-04-06T13:26:32;3.42;;;2.33;;
18879;SDS011;9572;52.378;13.404;2023-04-06T13:29:00;4.43;;;2.35;;
18879;SDS011;9572;52.378;13.404;2023-04-06T13:31:29;5.57;;;2.40;;
18879;SDS011;9572;52.378;13.404;2023-04-06T13:33:56;5.20;;;2.40;;
18879;SDS011;9572;52.378;13.404;2023-04-06T13:36:23;2.50;;;2.13;;
18879;SDS011;9572;52.378;13.404;2023-04-06T13:38:51;3.45;;;2.35;;
18879;SDS011;9572;52.378;13.404;2023-04-06T13:41:20;4.72;;;2.20;;
18879;SDS011;9572;52.378;13.404;2023-04-06T13:43:47;4.72;;;2.50;;
18879;SDS011;9572;52.378;13.404;2023-04-06T13:46:14;2.78;;;2.22;;
18879;SDS011;9572;52.378;13.404;2023-04-06T13:48:43;3.80;;;2.33;;
18879;SDS011;9572;52.378;13.404;2023-04-06T13:51:12;3.40;;;2.10;;
18879;SDS011;9572;52.378;13.404;2023-04-06T13:53:40;6.95;;;2.40;;
18879;SDS011;9572;52.378;13.404;2023-04-06T13:56:07;3.65;;;2.00;;
18879;SDS011;9572;52.378;13.404;2023-04-06T13:58:34;2.50;;;2.30;;
18879;SDS011;9572;52.378;13.404;2023-04-06T14:01:02;3.45;;;2.50;;
18879;SDS011;9572;52.378;13.404;2023-04-06T14:03:29;3.95;;;2.20;;
18879;SDS011;9572;52.378;13.404;2023-04-06T14:05:58;4.25;;;2.25;;
18879;SDS011;9572;52.378;13.404;2023-04-06T14:08:25;3.17;;;2.72;;
18879;SDS011;9572;52.378;13.404;2023-04-06T14:10:52;5.38;;;2.30;;
18879;SDS011;9572;52.378;13.404;2023-04-06T14:13:20;3.53;;;2.20;;
18879;SDS011;9572;52.378;13.404;2023-04-06T14:15:52;3.53;;;2.20;;
18879;SDS011;9572;52.378;13.404;2023-04-06T14:18:19;3.97;;;2.05;;
18879;SDS011;9572;52.378;13.404;2023-04-06T14:20:52;3.90;;;2.72;;
18879;SDS011;9572;52.378;13.404;2023-04-06T14:23:21;6.32;;;2.55;;
18879;SDS011;9572;52.378;13.404;2023-04-06T14:25:48;3.35;;;2.33;;
18879;SDS011;9572;52.378;13.404;2023-04-06T14:28:15;2.83;;;2.20;;
18879;SDS011;9572;52.378;13.404;2023-04-06T14:30:42;4.63;;;2.20;;
18879;SDS011;9572;52.378;13.404;2023-04-06T14:33:09;3.58;;;2.20;;
18879;SDS011;9572;52.378;13.404;2023-04-06T14:35:37;3.03;;;2.13;;
18879;SDS011;9572;52.378;13.404;2023-04-06T14:38:04;4.28;;;2.25;;
18879;SDS011;9572;52.378;13.404;2023-04-06T14:40:35;21.48;;;12.80;;
18879;SDS011;9572;52.378;13.404;2023-04-06T14:43:03;4.40;;;3.40;;
18879;SDS011;9572;52.378;13.404;2023-04-06T14:45:32;4.10;;;2.40;;
18879;SDS011;9572;52.378;13.404;2023-04-06T14:47:59;3.00;;;2.30;;
18879;SDS011;9572;52.378;13.404;2023-04-06T14:50:27;3.17;;;2.40;;
18879;SDS011;9572;52.378;13.404;2023-04-06T14:52:53;2.63;;;2.17;;
18879;SDS011;9572;52.378;13.404;2023-04-06T14:55:20;2.45;;;2.10;;
18879;SDS011;9572;52.378;13.404;2023-04-06T14:57:49;3.78;;;2.13;;
18879;SDS011;9572;52.378;13.404;2023-04-06T15:00:16;2.65;;;2.10;;
18879;SDS011;9572;52.378;13.404;2023-04-06T15:02:43;3.05;;;2.30;;
18879;SDS011;9572;52.378;13.404;2023-04-06T15:05:10;2.22;;;1.98;;
18879;SDS011;9572;52.378;13.404;2023-04-06T15:07:37;3.13;;;2.22;;
18879;SDS011;9572;52.378;13.404;2023-04-06T15:10:04;2.28;;;2.08;;